sensor_id;sensor_type;location;lat;lon;timestamp;temperature;humidity
44111;DHT22;29774;52.664;5.074;2022-09-23T00:00:36;10.80;87.70
44111;DHT22;29774;52.664;5.074;2022-09-23T00:03:02;10.90;88.10
44111;DHT22;29774;52.664;5.074;2022-09-23T00:05:29;10.90;88.40
44111;DHT22;29774;52.664;5.074;2022-09-23T00:07:55;11.00;89.20
44111;DHT22;29774;52.664;5.074;2022-09-23T00:10:23;11.10;88.40
44111;DHT22;29774;52.664;5.074;2022-09-23T00:12:49;11.00;88.00
44111;DHT22;29774;52.664;5.074;2022-09-23T00:15:16;10.90;88.60
44111;DHT22;29774;52.664;5.074;2022-09-23T00:17:42;10.90;88.90
44111;DHT22;29774;52.664;5.074;2022-09-23T00:20:08;11.00;89.60
44111;DHT22;29774;52.664;5.074;2022-09-23T00:22:37;11.10;88.30
44111;DHT22;29774;52.664;5.074;2022-09-23T00:25:04;11.00;89.40
44111;DHT22;29774;52.664;5.074;2022-09-23T00:27:30;11.20;88.90
44111;DHT22;29774;52.664;5.074;2022-09-23T00:29:58;11.20;88.50
44111;DHT22;29774;52.664;5.074;2022-09-23T00:32:24;11.40;88.90
44111;DHT22;29774;52.664;5.074;2022-09-23T00:34:50;11.30;88.10
44111;DHT22;29774;52.664;5.074;2022-09-23T00:37:17;11.10;88.30
44111;DHT22;29774;52.664;5.074;2022-09-23T00:39:43;11.30;88.30
44111;DHT22;29774;52.664;5.074;2022-09-23T00:42:16;11.40;88.50
44111;DHT22;29774;52.664;5.074;2022-09-23T00:44:49;11.20;88.40
44111;DHT22;29774;52.664;5.074;2022-09-23T00:47:17;11.00;88.30
44111;DHT22;29774;52.664;5.074;2022-09-23T00:49:48;11.00;88.50
44111;DHT22;29774;52.664;5.074;2022-09-23T00:52:16;10.80;88.00
44111;DHT22;29774;52.664;5.074;2022-09-23T00:54:45;10.80;87.90
44111;DHT22;29774;52.664;5.074;2022-09-23T00:57:14;10.70;88.60
44111;DHT22;29774;52.664;5.074;2022-09-23T00:59:40;10.50;88.30
44111;DHT22;29774;52.664;5.074;2022-09-23T01:02:07;10.50;89.50
44111;DHT22;29774;52.664;5.074;2022-09-23T01:04:34;10.50;89.60
44111;DHT22;29774;52.664;5.074;2022-09-23T01:07:00;10.30;88.80
44111;DHT22;29774;52.664;5.074;2022-09-23T01:09:26;10.60;89.40
44111;DHT22;29774;52.664;5.074;2022-09-23T01:12:06;10.60;88.90
44111;DHT22;29774;52.664;5.074;2022-09-23T01:14:55;10.60;88.50
44111;DHT22;29774;52.664;5.074;2022-09-23T01:31:42;10.70;89.10
44111;DHT22;29774;52.664;5.074;2022-09-23T01:34:35;10.50;87.10
44111;DHT22;29774;52.664;5.074;2022-09-23T01:40:00;10.40;88.10
44111;DHT22;29774;52.664;5.074;2022-09-23T01:42:42;10.30;88.60
44111;DHT22;29774;52.664;5.074;2022-09-23T01:48:16;10.30;86.90
44111;DHT22;29774;52.664;5.074;2022-09-23T01:51:11;10.80;87.80
44111;DHT22;29774;52.664;5.074;2022-09-23T01:56:32;10.70;86.70
44111;DHT22;29774;52.664;5.074;2022-09-23T01:59:06;10.60;85.80
44111;DHT22;29774;52.664;5.074;2022-09-23T02:02:04;10.40;86.70
44111;DHT22;29774;52.664;5.074;2022-09-23T02:04:46;10.80;86.80
44111;DHT22;29774;52.664;5.074;2022-09-23T02:07:22;10.70;85.90
44111;DHT22;29774;52.664;5.074;2022-09-23T02:09:57;10.70;86.70
44111;DHT22;29774;52.664;5.074;2022-09-23T02:12:26;10.80;85.80
44111;DHT22;29774;52.664;5.074;2022-09-23T02:15:14;10.80;85.00
44111;DHT22;29774;52.664;5.074;2022-09-23T02:17:46;10.60;86.10
44111;DHT22;29774;52.664;5.074;2022-09-23T02:20:15;10.80;86.70
44111;DHT22;29774;52.664;5.074;2022-09-23T02:25:34;10.90;85.70
44111;DHT22;29774;52.664;5.074;2022-09-23T02:28:11;10.90;85.60
44111;DHT22;29774;52.664;5.074;2022-09-23T02:30:45;11.10;85.60
44111;DHT22;29774;52.664;5.074;2022-09-23T02:33:19;10.90;84.60
44111;DHT22;29774;52.664;5.074;2022-09-23T02:35:52;11.10;84.70
44111;DHT22;29774;52.664;5.074;2022-09-23T02:38:26;11.30;84.50
44111;DHT22;29774;52.664;5.074;2022-09-23T02:41:06;11.00;84.10
44111;DHT22;29774;52.664;5.074;2022-09-23T02:43:59;10.50;84.50
44111;DHT22;29774;52.664;5.074;2022-09-23T02:46:27;10.70;86.00
44111;DHT22;29774;52.664;5.074;2022-09-23T02:49:19;10.80;85.40
44111;DHT22;29774;52.664;5.074;2022-09-23T02:51:46;10.80;85.30
44111;DHT22;29774;52.664;5.074;2022-09-23T02:54:15;11.20;84.50
44111;DHT22;29774;52.664;5.074;2022-09-23T02:56:42;11.30;83.80
44111;DHT22;29774;52.664;5.074;2022-09-23T02:59:08;11.10;83.60
44111;DHT22;29774;52.664;5.074;2022-09-23T03:11:56;11.20;83.60
44111;DHT22;29774;52.664;5.074;2022-09-23T03:18:01;11.10;83.60
44111;DHT22;29774;52.664;5.074;2022-09-23T03:20:37;10.70;83.50
44111;DHT22;29774;52.664;5.074;2022-09-23T03:23:08;10.70;84.30
44111;DHT22;29774;52.664;5.074;2022-09-23T03:25:37;11.10;84.10
44111;DHT22;29774;52.664;5.074;2022-09-23T03:28:05;11.00;84.90
44111;DHT22;29774;52.664;5.074;2022-09-23T03:30:33;11.60;83.20
44111;DHT22;29774;52.664;5.074;2022-09-23T03:33:03;11.80;82.10
44111;DHT22;29774;52.664;5.074;2022-09-23T03:35:32;11.50;83.00
44111;DHT22;29774;52.664;5.074;2022-09-23T03:38:22;11.30;83.60
44111;DHT22;29774;52.664;5.074;2022-09-23T03:40:51;11.20;84.20
44111;DHT22;29774;52.664;5.074;2022-09-23T03:43:18;11.40;82.50
44111;DHT22;29774;52.664;5.074;2022-09-23T03:45:45;11.30;83.40
44111;DHT22;29774;52.664;5.074;2022-09-23T03:48:11;11.70;82.80
44111;DHT22;29774;52.664;5.074;2022-09-23T03:50:38;11.60;82.60
44111;DHT22;29774;52.664;5.074;2022-09-23T03:53:03;11.60;83.20
44111;DHT22;29774;52.664;5.074;2022-09-23T03:55:29;11.40;82.30
44111;DHT22;29774;52.664;5.074;2022-09-23T03:57:56;11.60;83.40
44111;DHT22;29774;52.664;5.074;2022-09-23T04:00:22;11.60;83.20
44111;DHT22;29774;52.664;5.074;2022-09-23T04:02:47;11.70;82.70
44111;DHT22;29774;52.664;5.074;2022-09-23T04:05:14;12.20;82.60
44111;DHT22;29774;52.664;5.074;2022-09-23T04:07:57;11.90;80.80
44111;DHT22;29774;52.664;5.074;2022-09-23T04:10:23;11.40;82.70
44111;DHT22;29774;52.664;5.074;2022-09-23T04:12:48;11.50;84.00
44111;DHT22;29774;52.664;5.074;2022-09-23T04:15:14;11.70;83.50
44111;DHT22;29774;52.664;5.074;2022-09-23T04:17:40;12.10;82.50
44111;DHT22;29774;52.664;5.074;2022-09-23T04:20:06;12.40;80.20
44111;DHT22;29774;52.664;5.074;2022-09-23T04:22:33;12.80;78.60
44111;DHT22;29774;52.664;5.074;2022-09-23T04:24:58;12.60;79.50
44111;DHT22;29774;52.664;5.074;2022-09-23T04:27:24;12.40;79.80
44111;DHT22;29774;52.664;5.074;2022-09-23T04:29:49;13.20;77.80
44111;DHT22;29774;52.664;5.074;2022-09-23T04:32:15;13.40;75.60
44111;DHT22;29774;52.664;5.074;2022-09-23T04:34:41;12.80;77.60
44111;DHT22;29774;52.664;5.074;2022-09-23T04:37:06;12.40;79.00
44111;DHT22;29774;52.664;5.074;2022-09-23T04:39:32;12.70;80.10
44111;DHT22;29774;52.664;5.074;2022-09-23T04:41:57;13.80;76.20
44111;DHT22;29774;52.664;5.074;2022-09-23T04:44:24;13.00;76.60
44111;DHT22;29774;52.664;5.074;2022-09-23T04:46:52;13.30;75.60
44111;DHT22;29774;52.664;5.074;2022-09-23T04:49:17;13.40;75.60
44111;DHT22;29774;52.664;5.074;2022-09-23T04:51:43;13.20;75.70
44111;DHT22;29774;52.664;5.074;2022-09-23T04:54:11;12.80;78.20
44111;DHT22;29774;52.664;5.074;2022-09-23T04:56:37;12.70;78.20
44111;DHT22;29774;52.664;5.074;2022-09-23T04:59:02;12.70;78.70
44111;DHT22;29774;52.664;5.074;2022-09-23T05:01:30;12.40;79.50
44111;DHT22;29774;52.664;5.074;2022-09-23T05:03:58;12.20;80.10
44111;DHT22;29774;52.664;5.074;2022-09-23T05:06:27;12.50;78.90
44111;DHT22;29774;52.664;5.074;2022-09-23T05:08:54;12.20;80.10
44111;DHT22;29774;52.664;5.074;2022-09-23T05:11:21;12.10;80.70
44111;DHT22;29774;52.664;5.074;2022-09-23T05:13:48;12.10;81.00
44111;DHT22;29774;52.664;5.074;2022-09-23T05:16:13;12.20;79.80
44111;DHT22;29774;52.664;5.074;2022-09-23T05:18:41;12.00;80.80
44111;DHT22;29774;52.664;5.074;2022-09-23T05:21:08;11.90;81.20
44111;DHT22;29774;52.664;5.074;2022-09-23T05:23:34;12.60;79.40
44111;DHT22;29774;52.664;5.074;2022-09-23T05:26:03;12.40;79.10
44111;DHT22;29774;52.664;5.074;2022-09-23T05:28:29;12.30;79.50
44111;DHT22;29774;52.664;5.074;2022-09-23T05:31:10;12.20;80.10
44111;DHT22;29774;52.664;5.074;2022-09-23T05:33:41;12.20;80.90
44111;DHT22;29774;52.664;5.074;2022-09-23T05:36:07;12.00;81.20
44111;DHT22;29774;52.664;5.074;2022-09-23T05:38:33;12.10;81.20
44111;DHT22;29774;52.664;5.074;2022-09-23T05:41:05;12.20;81.20
44111;DHT22;29774;52.664;5.074;2022-09-23T05:43:32;12.20;81.10
44111;DHT22;29774;52.664;5.074;2022-09-23T05:46:05;12.20;80.70
44111;DHT22;29774;52.664;5.074;2022-09-23T05:48:32;12.30;80.20
44111;DHT22;29774;52.664;5.074;2022-09-23T05:50:58;12.20;81.10
44111;DHT22;29774;52.664;5.074;2022-09-23T05:53:24;12.10;81.50
44111;DHT22;29774;52.664;5.074;2022-09-23T05:55:50;12.40;81.10
44111;DHT22;29774;52.664;5.074;2022-09-23T05:58:16;12.30;80.10
44111;DHT22;29774;52.664;5.074;2022-09-23T06:00:42;12.30;80.40
44111;DHT22;29774;52.664;5.074;2022-09-23T06:03:12;12.30;80.60
44111;DHT22;29774;52.664;5.074;2022-09-23T06:05:39;12.30;80.70
44111;DHT22;29774;52.664;5.074;2022-09-23T06:08:05;12.30;80.60
44111;DHT22;29774;52.664;5.074;2022-09-23T06:10:39;12.30;80.90
44111;DHT22;29774;52.664;5.074;2022-09-23T06:13:05;12.40;80.90
44111;DHT22;29774;52.664;5.074;2022-09-23T06:15:31;12.30;80.90
44111;DHT22;29774;52.664;5.074;2022-09-23T06:17:57;12.50;80.70
44111;DHT22;29774;52.664;5.074;2022-09-23T06:20:23;12.50;80.60
44111;DHT22;29774;52.664;5.074;2022-09-23T06:22:49;12.60;80.20
44111;DHT22;29774;52.664;5.074;2022-09-23T06:25:14;12.60;81.20
44111;DHT22;29774;52.664;5.074;2022-09-23T06:27:40;12.70;80.60
44111;DHT22;29774;52.664;5.074;2022-09-23T06:30:06;14.20;74.10
44111;DHT22;29774;52.664;5.074;2022-09-23T06:32:32;14.90;71.30
44111;DHT22;29774;52.664;5.074;2022-09-23T06:34:58;15.00;70.60
44111;DHT22;29774;52.664;5.074;2022-09-23T06:37:23;15.30;68.90
44111;DHT22;29774;52.664;5.074;2022-09-23T06:39:49;15.50;68.40
44111;DHT22;29774;52.664;5.074;2022-09-23T06:42:15;15.40;68.40
44111;DHT22;29774;52.664;5.074;2022-09-23T06:44:41;15.20;70.20
44111;DHT22;29774;52.664;5.074;2022-09-23T06:47:07;15.40;68.50
44111;DHT22;29774;52.664;5.074;2022-09-23T06:49:33;15.70;67.50
44111;DHT22;29774;52.664;5.074;2022-09-23T06:51:59;15.30;70.50
44111;DHT22;29774;52.664;5.074;2022-09-23T06:54:24;14.20;77.40
44111;DHT22;29774;52.664;5.074;2022-09-23T06:56:53;13.40;81.20
44111;DHT22;29774;52.664;5.074;2022-09-23T06:59:18;13.20;81.90
44111;DHT22;29774;52.664;5.074;2022-09-23T07:01:44;13.00;82.80
44111;DHT22;29774;52.664;5.074;2022-09-23T07:04:12;13.10;81.80
44111;DHT22;29774;52.664;5.074;2022-09-23T07:06:37;13.00;82.90
44111;DHT22;29774;52.664;5.074;2022-09-23T07:09:05;12.90;83.70
44111;DHT22;29774;52.664;5.074;2022-09-23T07:11:31;12.90;83.70
44111;DHT22;29774;52.664;5.074;2022-09-23T07:13:57;12.90;83.80
44111;DHT22;29774;52.664;5.074;2022-09-23T07:16:23;12.80;84.20
44111;DHT22;29774;52.664;5.074;2022-09-23T07:18:48;13.00;83.10
44111;DHT22;29774;52.664;5.074;2022-09-23T07:21:17;13.00;83.40
44111;DHT22;29774;52.664;5.074;2022-09-23T07:23:47;12.80;85.00
44111;DHT22;29774;52.664;5.074;2022-09-23T07:26:15;12.70;85.00
44111;DHT22;29774;52.664;5.074;2022-09-23T07:28:41;12.80;84.90
44111;DHT22;29774;52.664;5.074;2022-09-23T07:31:09;12.80;85.90
44111;DHT22;29774;52.664;5.074;2022-09-23T07:33:36;12.70;85.90
44111;DHT22;29774;52.664;5.074;2022-09-23T07:36:07;13.00;84.40
44111;DHT22;29774;52.664;5.074;2022-09-23T07:38:33;12.90;85.30
44111;DHT22;29774;52.664;5.074;2022-09-23T07:41:10;12.80;86.90
44111;DHT22;29774;52.664;5.074;2022-09-23T07:43:36;12.70;87.40
44111;DHT22;29774;52.664;5.074;2022-09-23T07:46:08;12.80;86.90
44111;DHT22;29774;52.664;5.074;2022-09-23T07:48:36;13.20;84.30
44111;DHT22;29774;52.664;5.074;2022-09-23T07:51:23;13.10;85.20
44111;DHT22;29774;52.664;5.074;2022-09-23T07:53:51;13.20;86.20
44111;DHT22;29774;52.664;5.074;2022-09-23T07:56:17;13.20;86.30
44111;DHT22;29774;52.664;5.074;2022-09-23T07:58:44;13.10;87.60
44111;DHT22;29774;52.664;5.074;2022-09-23T08:01:11;13.10;87.40
44111;DHT22;29774;52.664;5.074;2022-09-23T08:03:37;13.20;88.60
44111;DHT22;29774;52.664;5.074;2022-09-23T08:06:08;13.20;87.90
44111;DHT22;29774;52.664;5.074;2022-09-23T08:08:35;13.30;87.70
44111;DHT22;29774;52.664;5.074;2022-09-23T08:11:04;13.30;87.90
44111;DHT22;29774;52.664;5.074;2022-09-23T08:13:31;13.30;87.60
44111;DHT22;29774;52.664;5.074;2022-09-23T08:15:57;13.40;87.60
44111;DHT22;29774;52.664;5.074;2022-09-23T08:18:23;13.60;87.40
44111;DHT22;29774;52.664;5.074;2022-09-23T08:20:49;13.60;87.50
44111;DHT22;29774;52.664;5.074;2022-09-23T08:23:15;13.50;87.10
44111;DHT22;29774;52.664;5.074;2022-09-23T08:25:42;13.60;87.60
44111;DHT22;29774;52.664;5.074;2022-09-23T08:28:08;13.70;88.30
44111;DHT22;29774;52.664;5.074;2022-09-23T08:30:34;13.70;87.90
44111;DHT22;29774;52.664;5.074;2022-09-23T08:33:00;13.70;87.90
44111;DHT22;29774;52.664;5.074;2022-09-23T08:35:25;13.70;88.40
44111;DHT22;29774;52.664;5.074;2022-09-23T08:37:51;13.70;88.40
44111;DHT22;29774;52.664;5.074;2022-09-23T08:40:17;13.70;88.70
44111;DHT22;29774;52.664;5.074;2022-09-23T08:42:44;13.70;88.20
44111;DHT22;29774;52.664;5.074;2022-09-23T08:45:28;13.70;87.30
44111;DHT22;29774;52.664;5.074;2022-09-23T08:48:05;13.90;87.10
44111;DHT22;29774;52.664;5.074;2022-09-23T08:50:41;13.70;88.00
44111;DHT22;29774;52.664;5.074;2022-09-23T08:55:46;13.70;88.30
44111;DHT22;29774;52.664;5.074;2022-09-23T09:00:55;13.70;89.80
44111;DHT22;29774;52.664;5.074;2022-09-23T09:03:34;13.70;89.20
44111;DHT22;29774;52.664;5.074;2022-09-23T09:06:02;13.80;88.80
44111;DHT22;29774;52.664;5.074;2022-09-23T09:08:31;13.80;88.00
44111;DHT22;29774;52.664;5.074;2022-09-23T09:10:58;13.80;88.80
44111;DHT22;29774;52.664;5.074;2022-09-23T09:13:32;13.80;88.70
44111;DHT22;29774;52.664;5.074;2022-09-23T09:18:40;14.00;88.90
44111;DHT22;29774;52.664;5.074;2022-09-23T09:21:12;14.00;88.60
44111;DHT22;29774;52.664;5.074;2022-09-23T09:23:53;14.00;87.90
44111;DHT22;29774;52.664;5.074;2022-09-23T09:26:39;13.90;88.00
44111;DHT22;29774;52.664;5.074;2022-09-23T09:29:17;14.00;88.30
44111;DHT22;29774;52.664;5.074;2022-09-23T09:31:46;14.00;88.20
44111;DHT22;29774;52.664;5.074;2022-09-23T09:37:09;14.10;87.30
44111;DHT22;29774;52.664;5.074;2022-09-23T09:39:39;14.10;86.80
44111;DHT22;29774;52.664;5.074;2022-09-23T09:42:05;14.20;87.50
44111;DHT22;29774;52.664;5.074;2022-09-23T09:50:15;14.30;86.00
44111;DHT22;29774;52.664;5.074;2022-09-23T09:52:46;14.40;85.20
44111;DHT22;29774;52.664;5.074;2022-09-23T09:57:48;14.50;84.50
44111;DHT22;29774;52.664;5.074;2022-09-23T10:08:21;14.40;84.60
44111;DHT22;29774;52.664;5.074;2022-09-23T10:13:20;14.20;86.40
44111;DHT22;29774;52.664;5.074;2022-09-23T10:15:49;14.20;86.20
44111;DHT22;29774;52.664;5.074;2022-09-23T10:21:05;14.20;86.90
44111;DHT22;29774;52.664;5.074;2022-09-23T10:23:32;14.20;87.80
44111;DHT22;29774;52.664;5.074;2022-09-23T10:26:04;14.20;87.90
44111;DHT22;29774;52.664;5.074;2022-09-23T10:28:51;14.20;87.60
44111;DHT22;29774;52.664;5.074;2022-09-23T10:31:33;14.20;87.70
44111;DHT22;29774;52.664;5.074;2022-09-23T10:34:00;14.20;87.40
44111;DHT22;29774;52.664;5.074;2022-09-23T10:36:31;14.20;87.60
44111;DHT22;29774;52.664;5.074;2022-09-23T10:38:59;14.20;88.20
44111;DHT22;29774;52.664;5.074;2022-09-23T10:42:04;14.30;88.90
44111;DHT22;29774;52.664;5.074;2022-09-23T10:48:06;14.30;87.80
44111;DHT22;29774;52.664;5.074;2022-09-23T10:50:46;14.30;88.70
44111;DHT22;29774;52.664;5.074;2022-09-23T10:53:41;14.30;89.20
44111;DHT22;29774;52.664;5.074;2022-09-23T10:56:32;14.30;88.80
44111;DHT22;29774;52.664;5.074;2022-09-23T11:12:35;14.40;88.90
44111;DHT22;29774;52.664;5.074;2022-09-23T11:15:25;14.40;88.80
44111;DHT22;29774;52.664;5.074;2022-09-23T11:20:38;14.50;88.90
44111;DHT22;29774;52.664;5.074;2022-09-23T11:23:32;14.60;89.00
44111;DHT22;29774;52.664;5.074;2022-09-23T11:26:19;14.70;89.20
44111;DHT22;29774;52.664;5.074;2022-09-23T11:29:47;14.70;89.10
44111;DHT22;29774;52.664;5.074;2022-09-23T11:34:27;14.80;88.60
44111;DHT22;29774;52.664;5.074;2022-09-23T11:37:05;14.90;88.70
44111;DHT22;29774;52.664;5.074;2022-09-23T11:39:46;15.00;88.30
44111;DHT22;29774;52.664;5.074;2022-09-23T11:42:29;15.20;88.20
44111;DHT22;29774;52.664;5.074;2022-09-23T11:45:13;15.20;87.70
44111;DHT22;29774;52.664;5.074;2022-09-23T11:48:19;15.20;88.30
44111;DHT22;29774;52.664;5.074;2022-09-23T11:59:10;15.70;86.40
44111;DHT22;29774;52.664;5.074;2022-09-23T12:01:55;15.80;86.00
44111;DHT22;29774;52.664;5.074;2022-09-23T12:04:30;15.80;85.30
44111;DHT22;29774;52.664;5.074;2022-09-23T12:12:17;15.80;85.00
44111;DHT22;29774;52.664;5.074;2022-09-23T12:15:02;15.90;84.30
44111;DHT22;29774;52.664;5.074;2022-09-23T12:18:05;16.00;84.10
44111;DHT22;29774;52.664;5.074;2022-09-23T12:21:05;16.10;82.70
44111;DHT22;29774;52.664;5.074;2022-09-23T12:26:35;16.30;82.20
44111;DHT22;29774;52.664;5.074;2022-09-23T12:29:03;16.30;82.70
44111;DHT22;29774;52.664;5.074;2022-09-23T12:31:30;16.40;81.60
44111;DHT22;29774;52.664;5.074;2022-09-23T12:34:01;16.40;80.30
44111;DHT22;29774;52.664;5.074;2022-09-23T12:36:31;16.40;81.80
44111;DHT22;29774;52.664;5.074;2022-09-23T12:39:05;16.50;82.90
44111;DHT22;29774;52.664;5.074;2022-09-23T12:41:38;16.50;82.40
44111;DHT22;29774;52.664;5.074;2022-09-23T12:46:46;16.60;81.50
44111;DHT22;29774;52.664;5.074;2022-09-23T12:52:26;16.70;80.40
44111;DHT22;29774;52.664;5.074;2022-09-23T12:57:47;16.70;81.40
44111;DHT22;29774;52.664;5.074;2022-09-23T13:05:55;16.60;82.20
44111;DHT22;29774;52.664;5.074;2022-09-23T13:08:41;16.70;82.10
44111;DHT22;29774;52.664;5.074;2022-09-23T13:11:25;16.60;81.50
44111;DHT22;29774;52.664;5.074;2022-09-23T13:13:54;16.70;82.80
44111;DHT22;29774;52.664;5.074;2022-09-23T13:16:29;16.60;81.70
44111;DHT22;29774;52.664;5.074;2022-09-23T13:26:51;16.90;82.40
44111;DHT22;29774;52.664;5.074;2022-09-23T13:29:30;17.00;82.20
44111;DHT22;29774;52.664;5.074;2022-09-23T13:32:00;17.00;80.60
44111;DHT22;29774;52.664;5.074;2022-09-23T13:34:33;16.90;81.60
44111;DHT22;29774;52.664;5.074;2022-09-23T13:37:15;16.90;80.70
44111;DHT22;29774;52.664;5.074;2022-09-23T13:39:42;16.90;81.50
44111;DHT22;29774;52.664;5.074;2022-09-23T13:42:16;16.90;79.80
44111;DHT22;29774;52.664;5.074;2022-09-23T13:44:45;17.20;79.70
44111;DHT22;29774;52.664;5.074;2022-09-23T13:47:11;17.10;80.50
44111;DHT22;29774;52.664;5.074;2022-09-23T13:49:38;17.20;78.20
44111;DHT22;29774;52.664;5.074;2022-09-23T13:52:25;17.30;80.70
44111;DHT22;29774;52.664;5.074;2022-09-23T13:54:51;17.30;78.60
44111;DHT22;29774;52.664;5.074;2022-09-23T13:57:35;17.30;79.40
44111;DHT22;29774;52.664;5.074;2022-09-23T14:00:18;17.20;77.90
44111;DHT22;29774;52.664;5.074;2022-09-23T14:02:45;17.20;76.50
44111;DHT22;29774;52.664;5.074;2022-09-23T14:05:21;17.20;76.80
44111;DHT22;29774;52.664;5.074;2022-09-23T14:07:50;17.20;78.40
44111;DHT22;29774;52.664;5.074;2022-09-23T14:10:19;17.00;79.20
44111;DHT22;29774;52.664;5.074;2022-09-23T14:12:47;17.10;77.50
44111;DHT22;29774;52.664;5.074;2022-09-23T14:15:15;17.10;77.80
44111;DHT22;29774;52.664;5.074;2022-09-23T14:18:01;17.20;75.30
44111;DHT22;29774;52.664;5.074;2022-09-23T14:20:27;16.90;79.60
44111;DHT22;29774;52.664;5.074;2022-09-23T14:23:09;16.60;81.50
44111;DHT22;29774;52.664;5.074;2022-09-23T14:25:35;16.90;78.50
44111;DHT22;29774;52.664;5.074;2022-09-23T14:28:03;16.70;80.80
44111;DHT22;29774;52.664;5.074;2022-09-23T14:30:29;16.60;77.50
44111;DHT22;29774;52.664;5.074;2022-09-23T14:32:55;16.50;82.60
44111;DHT22;29774;52.664;5.074;2022-09-23T14:35:23;16.40;84.10
44111;DHT22;29774;52.664;5.074;2022-09-23T14:37:53;16.50;84.40
44111;DHT22;29774;52.664;5.074;2022-09-23T14:43:21;16.50;80.20
44111;DHT22;29774;52.664;5.074;2022-09-23T14:45:55;16.40;84.50
44111;DHT22;29774;52.664;5.074;2022-09-23T14:48:22;16.70;83.90
44111;DHT22;29774;52.664;5.074;2022-09-23T14:50:53;16.60;84.00
44111;DHT22;29774;52.664;5.074;2022-09-23T14:55:48;16.30;86.50
44111;DHT22;29774;52.664;5.074;2022-09-23T14:58:19;16.30;86.90
44111;DHT22;29774;52.664;5.074;2022-09-23T15:00:57;16.20;87.40
44111;DHT22;29774;52.664;5.074;2022-09-23T15:03:24;16.50;83.80
44111;DHT22;29774;52.664;5.074;2022-09-23T15:06:00;16.40;85.80
44111;DHT22;29774;52.664;5.074;2022-09-23T15:08:27;16.40;86.30
44111;DHT22;29774;52.664;5.074;2022-09-23T15:10:53;16.90;82.10
44111;DHT22;29774;52.664;5.074;2022-09-23T15:13:37;16.60;84.70
44111;DHT22;29774;52.664;5.074;2022-09-23T15:16:03;16.50;82.30
44111;DHT22;29774;52.664;5.074;2022-09-23T15:18:34;16.50;85.90
44111;DHT22;29774;52.664;5.074;2022-09-23T15:21:09;16.40;84.70
44111;DHT22;29774;52.664;5.074;2022-09-23T15:23:54;16.30;86.00
44111;DHT22;29774;52.664;5.074;2022-09-23T15:29:07;16.20;86.40
44111;DHT22;29774;52.664;5.074;2022-09-23T15:31:33;16.20;87.60
44111;DHT22;29774;52.664;5.074;2022-09-23T15:33:59;16.10;87.80
44111;DHT22;29774;52.664;5.074;2022-09-23T15:36:26;16.10;88.40
44111;DHT22;29774;52.664;5.074;2022-09-23T15:39:00;16.00;89.00
44111;DHT22;29774;52.664;5.074;2022-09-23T15:41:26;16.00;88.70
44111;DHT22;29774;52.664;5.074;2022-09-23T15:43:51;15.90;88.80
44111;DHT22;29774;52.664;5.074;2022-09-23T15:46:24;15.90;89.30
44111;DHT22;29774;52.664;5.074;2022-09-23T15:49:04;15.80;89.60
44111;DHT22;29774;52.664;5.074;2022-09-23T15:51:30;15.80;89.80
44111;DHT22;29774;52.664;5.074;2022-09-23T15:53:56;15.70;89.80
44111;DHT22;29774;52.664;5.074;2022-09-23T15:56:23;15.70;90.30
44111;DHT22;29774;52.664;5.074;2022-09-23T15:58:49;15.70;90.60
44111;DHT22;29774;52.664;5.074;2022-09-23T16:01:32;15.70;90.70
44111;DHT22;29774;52.664;5.074;2022-09-23T16:03:58;15.70;91.00
44111;DHT22;29774;52.664;5.074;2022-09-23T16:06:28;15.70;91.10
44111;DHT22;29774;52.664;5.074;2022-09-23T16:08:54;15.70;91.30
44111;DHT22;29774;52.664;5.074;2022-09-23T16:11:25;15.70;91.20
44111;DHT22;29774;52.664;5.074;2022-09-23T16:13:53;15.70;91.00
44111;DHT22;29774;52.664;5.074;2022-09-23T16:16:19;15.60;90.80
44111;DHT22;29774;52.664;5.074;2022-09-23T16:18:48;15.60;91.00
44111;DHT22;29774;52.664;5.074;2022-09-23T16:21:18;15.70;91.20
44111;DHT22;29774;52.664;5.074;2022-09-23T16:23:45;15.70;91.30
44111;DHT22;29774;52.664;5.074;2022-09-23T16:26:20;15.60;91.30
44111;DHT22;29774;52.664;5.074;2022-09-23T16:28:47;15.60;91.50
44111;DHT22;29774;52.664;5.074;2022-09-23T16:31:14;15.60;91.70
44111;DHT22;29774;52.664;5.074;2022-09-23T16:33:40;15.60;92.10
44111;DHT22;29774;52.664;5.074;2022-09-23T16:36:12;15.60;92.20
44111;DHT22;29774;52.664;5.074;2022-09-23T16:38:39;15.50;92.10
44111;DHT22;29774;52.664;5.074;2022-09-23T16:41:05;15.50;92.30
44111;DHT22;29774;52.664;5.074;2022-09-23T16:43:33;15.50;92.50
44111;DHT22;29774;52.664;5.074;2022-09-23T16:46:14;15.50;92.50
44111;DHT22;29774;52.664;5.074;2022-09-23T16:48:41;15.40;92.70
44111;DHT22;29774;52.664;5.074;2022-09-23T16:51:21;15.40;92.90
44111;DHT22;29774;52.664;5.074;2022-09-23T16:53:48;15.40;92.90
44111;DHT22;29774;52.664;5.074;2022-09-23T16:56:15;15.30;92.80
44111;DHT22;29774;52.664;5.074;2022-09-23T16:58:41;15.30;92.80
44111;DHT22;29774;52.664;5.074;2022-09-23T17:01:12;15.30;92.80
44111;DHT22;29774;52.664;5.074;2022-09-23T17:03:57;15.30;93.00
44111;DHT22;29774;52.664;5.074;2022-09-23T17:06:23;15.20;93.10
44111;DHT22;29774;52.664;5.074;2022-09-23T17:08:51;15.20;93.10
44111;DHT22;29774;52.664;5.074;2022-09-23T17:11:17;15.20;93.10
44111;DHT22;29774;52.664;5.074;2022-09-23T17:13:44;15.20;93.00
44111;DHT22;29774;52.664;5.074;2022-09-23T17:16:11;15.10;93.20
44111;DHT22;29774;52.664;5.074;2022-09-23T17:18:45;15.20;93.30
44111;DHT22;29774;52.664;5.074;2022-09-23T17:21:11;15.20;93.50
44111;DHT22;29774;52.664;5.074;2022-09-23T17:23:36;15.20;93.60
44111;DHT22;29774;52.664;5.074;2022-09-23T17:26:02;15.20;93.70
44111;DHT22;29774;52.664;5.074;2022-09-23T17:28:30;15.10;93.90
44111;DHT22;29774;52.664;5.074;2022-09-23T17:30:57;15.10;94.00
44111;DHT22;29774;52.664;5.074;2022-09-23T17:33:24;15.10;94.00
44111;DHT22;29774;52.664;5.074;2022-09-23T17:35:50;15.10;94.10
44111;DHT22;29774;52.664;5.074;2022-09-23T17:38:16;15.10;94.20
44111;DHT22;29774;52.664;5.074;2022-09-23T17:40:49;15.10;94.30
44111;DHT22;29774;52.664;5.074;2022-09-23T17:43:14;15.10;94.30
44111;DHT22;29774;52.664;5.074;2022-09-23T17:45:40;15.10;94.40
44111;DHT22;29774;52.664;5.074;2022-09-23T17:48:06;15.10;94.40
44111;DHT22;29774;52.664;5.074;2022-09-23T17:50:32;15.10;94.50
44111;DHT22;29774;52.664;5.074;2022-09-23T17:52:57;15.10;94.40
44111;DHT22;29774;52.664;5.074;2022-09-23T17:55:24;15.40;93.40
44111;DHT22;29774;52.664;5.074;2022-09-23T17:57:50;15.30;93.10
44111;DHT22;29774;52.664;5.074;2022-09-23T18:00:16;15.90;90.10
44111;DHT22;29774;52.664;5.074;2022-09-23T18:02:41;15.80;90.90
44111;DHT22;29774;52.664;5.074;2022-09-23T18:05:07;15.80;90.00
44111;DHT22;29774;52.664;5.074;2022-09-23T18:07:33;15.70;90.90
44111;DHT22;29774;52.664;5.074;2022-09-23T18:09:58;15.40;92.20
44111;DHT22;29774;52.664;5.074;2022-09-23T18:12:24;15.40;92.60